sensor_id;sensor_type;location;lat;lon;timestamp;P1;durP1;ratioP1;P2;durP2;ratioP2
215;SDS011;70668;48.81286795;9.14184224;2023-07-22T00:01:31;8.13;;;4.13;;
215;SDS011;70668;48.81286795;9.14184224;2023-07-22T00:04:00;7.53;;;4.00;;
215;SDS011;70668;48.81286795;9.14184224;2023-07-22T00:06:28;6.37;;;3.60;;
215;SDS011;70668;48.81286795;9.14184224;2023-07-22T00:08:56;5.67;;;3.63;;
215;SDS011;70668;48.81286795;9.14184224;2023-07-22T00:11:25;6.67;;;3.70;;
215;SDS011;70668;48.81286795;9.14184224;2023-07-22T00:13:53;8.60;;;4.27;;
215;SDS011;70668;48.81286795;9.14184224;2023-07-22T00:16:22;11.20;;;4.43;;
215;SDS011;70668;48.81286795;9.14184224;2023-07-22T00:18:53;6.30;;;3.90;;
215;SDS011;70668;48.81286795;9.14184224;2023-07-22T00:21:21;6.90;;;4.30;;
215;SDS011;70668;48.81286795;9.14184224;2023-07-22T00:23:49;8.00;;;4.17;;
215;SDS011;70668;48.81286795;9.14184224;2023-07-22T00:26:18;6.40;;;4.27;;
215;SDS011;70668;48.81286795;9.14184224;2023-07-22T00:28:46;6.70;;;4.20;;
215;SDS011;70668;48.81286795;9.14184224;2023-07-22T00:31:15;6.70;;;4.37;;
215;SDS011;70668;48.81286795;9.14184224;2023-07-22T00:33:43;8.10;;;4.70;;
215;SDS011;70668;48.81286795;9.14184224;2023-07-22T00:36:14;8.27;;;4.70;;
215;SDS011;70668;48.81286795;9.14184224;2023-07-22T00:38:42;8.50;;;4.70;;
215;SDS011;70668;48.81286795;9.14184224;2023-07-22T00:41:11;10.70;;;4.50;;
215;SDS011;70668;48.81286795;9.14184224;2023-07-22T00:43:39;7.53;;;4.37;;
215;SDS011;70668;48.81286795;9.14184224;2023-07-22T00:46:08;8.23;;;4.53;;
215;SDS011;70668;48.81286795;9.14184224;2023-07-22T00:48:37;7.50;;;4.60;;
215;SDS011;70668;48.81286795;9.14184224;2023-07-22T00:51:06;10.87;;;4.60;;
215;SDS011;70668;48.81286795;9.14184224;2023-07-22T00:53:37;7.67;;;4.70;;
215;SDS011;70668;48.81286795;9.14184224;2023-07-22T00:56:05;8.00;;;4.33;;
215;SDS011;70668;48.81286795;9.14184224;2023-07-22T00:58:34;11.63;;;5.50;;
215;SDS011;70668;48.81286795;9.14184224;2023-07-22T01:01:02;9.60;;;5.90;;
215;SDS011;70668;48.81286795;9.14184224;2023-07-22T01:03:31;9.07;;;5.00;;
215;SDS011;70668;48.81286795;9.14184224;2023-07-22T01:05:59;9.30;;;4.93;;
215;SDS011;70668;48.81286795;9.14184224;2023-07-22T01:08:28;9.17;;;4.73;;
215;SDS011;70668;48.81286795;9.14184224;2023-07-22T01:10:59;9.50;;;5.37;;
215;SDS011;70668;48.81286795;9.14184224;2023-07-22T01:13:29;9.23;;;5.47;;
215;SDS011;70668;48.81286795;9.14184224;2023-07-22T01:15:57;10.07;;;5.47;;
215;SDS011;70668;48.81286795;9.14184224;2023-07-22T01:18:26;9.40;;;5.27;;
215;SDS011;70668;48.81286795;9.14184224;2023-07-22T01:20:54;8.60;;;4.83;;
215;SDS011;70668;48.81286795;9.14184224;2023-07-22T01:23:25;7.90;;;5.10;;
215;SDS011;70668;48.81286795;9.14184224;2023-07-22T01:25:54;6.83;;;4.40;;
215;SDS011;70668;48.81286795;9.14184224;2023-07-22T01:28:22;8.37;;;5.17;;
215;SDS011;70668;48.81286795;9.14184224;2023-07-22T01:30:51;8.23;;;4.90;;
215;SDS011;70668;48.81286795;9.14184224;2023-07-22T01:33:20;7.57;;;4.60;;
215;SDS011;70668;48.81286795;9.14184224;2023-07-22T01:35:51;8.40;;;4.70;;
215;SDS011;70668;48.81286795;9.14184224;2023-07-22T01:38:19;7.50;;;4.50;;
215;SDS011;70668;48.81286795;9.14184224;2023-07-22T01:40:50;8.17;;;5.00;;
215;SDS011;70668;48.81286795;9.14184224;2023-07-22T01:43:19;7.60;;;4.67;;
215;SDS011;70668;48.81286795;9.14184224;2023-07-22T01:45:47;7.60;;;5.00;;
215;SDS011;70668;48.81286795;9.14184224;2023-07-22T01:48:16;7.07;;;4.83;;
215;SDS011;70668;48.81286795;9.14184224;2023-07-22T01:50:44;9.93;;;5.20;;
215;SDS011;70668;48.81286795;9.14184224;2023-07-22T01:53:13;8.67;;;4.60;;
215;SDS011;70668;48.81286795;9.14184224;2023-07-22T01:55:41;7.00;;;4.50;;
215;SDS011;70668;48.81286795;9.14184224;2023-07-22T01:58:12;7.97;;;4.57;;
215;SDS011;70668;48.81286795;9.14184224;2023-07-22T02:00:41;7.10;;;4.23;;
215;SDS011;70668;48.81286795;9.14184224;2023-07-22T02:03:09;7.43;;;4.40;;
215;SDS011;70668;48.81286795;9.14184224;2023-07-22T02:05:37;6.60;;;4.50;;
215;SDS011;70668;48.81286795;9.14184224;2023-07-22T02:08:06;7.27;;;4.77;;
215;SDS011;70668;48.81286795;9.14184224;2023-07-22T02:10:35;7.97;;;4.50;;
215;SDS011;70668;48.81286795;9.14184224;2023-07-22T02:13:03;10.13;;;4.73;;
215;SDS011;70668;48.81286795;9.14184224;2023-07-22T02:15:35;8.23;;;4.30;;
215;SDS011;70668;48.81286795;9.14184224;2023-07-22T02:18:04;6.83;;;4.10;;
215;SDS011;70668;48.81286795;9.14184224;2023-07-22T02:20:32;7.97;;;4.30;;
215;SDS011;70668;48.81286795;9.14184224;2023-07-22T02:23:00;9.07;;;4.80;;
215;SDS011;70668;48.81286795;9.14184224;2023-07-22T02:25:29;9.00;;;4.30;;
215;SDS011;70668;48.81286795;9.14184224;2023-07-22T02:27:57;7.30;;;4.67;;
215;SDS011;70668;48.81286795;9.14184224;2023-07-22T02:30:26;8.50;;;4.80;;
215;SDS011;70668;48.81286795;9.14184224;2023-07-22T02:32:57;9.37;;;4.70;;
215;SDS011;70668;48.81286795;9.14184224;2023-07-22T02:35:25;6.80;;;4.30;;
215;SDS011;70668;48.81286795;9.14184224;2023-07-22T02:37:53;7.73;;;4.40;;
215;SDS011;70668;48.81286795;9.14184224;2023-07-22T02:40:22;7.53;;;4.90;;
215;SDS011;70668;48.81286795;9.14184224;2023-07-22T02:42:50;7.60;;;4.40;;
215;SDS011;70668;48.81286795;9.14184224;2023-07-22T02:45:19;8.43;;;4.40;;
215;SDS011;70668;48.81286795;9.14184224;2023-07-22T02:47:47;7.13;;;4.93;;
215;SDS011;70668;48.81286795;9.14184224;2023-07-22T02:50:18;7.50;;;4.80;;
215;SDS011;70668;48.81286795;9.14184224;2023-07-22T02:52:47;9.97;;;4.80;;
215;SDS011;70668;48.81286795;9.14184224;2023-07-22T02:55:16;10.40;;;4.60;;
215;SDS011;70668;48.81286795;9.14184224;2023-07-22T02:57:46;8.00;;;4.57;;
215;SDS011;70668;48.81286795;9.14184224;2023-07-22T03:00:15;7.83;;;4.90;;
215;SDS011;70668;48.81286795;9.14184224;2023-07-22T03:02:48;8.20;;;4.50;;
215;SDS011;70668;48.81286795;9.14184224;2023-07-22T03:05:20;8.33;;;4.30;;
215;SDS011;70668;48.81286795;9.14184224;2023-07-22T03:07:51;7.50;;;4.40;;
215;SDS011;70668;48.81286795;9.14184224;2023-07-22T03:10:19;8.33;;;4.60;;
215;SDS011;70668;48.81286795;9.14184224;2023-07-22T03:12:48;6.77;;;4.23;;
215;SDS011;70668;48.81286795;9.14184224;2023-07-22T03:15:20;7.00;;;4.57;;
215;SDS011;70668;48.81286795;9.14184224;2023-07-22T03:17:51;8.40;;;4.80;;
215;SDS011;70668;48.81286795;9.14184224;2023-07-22T03:20:23;6.70;;;4.30;;
215;SDS011;70668;48.81286795;9.14184224;2023-07-22T03:22:51;6.77;;;4.60;;
215;SDS011;70668;48.81286795;9.14184224;2023-07-22T03:25:20;7.33;;;4.70;;
215;SDS011;70668;48.81286795;9.14184224;2023-07-22T03:27:49;6.90;;;4.13;;
215;SDS011;70668;48.81286795;9.14184224;2023-07-22T03:30:17;6.80;;;4.70;;
215;SDS011;70668;48.81286795;9.14184224;2023-07-22T03:32:49;6.10;;;4.17;;
215;SDS011;70668;48.81286795;9.14184224;2023-07-22T03:35:18;6.70;;;3.90;;
215;SDS011;70668;48.81286795;9.14184224;2023-07-22T03:37:49;6.20;;;4.23;;
215;SDS011;70668;48.81286795;9.14184224;2023-07-22T03:40:17;8.07;;;4.43;;
215;SDS011;70668;48.81286795;9.14184224;2023-07-22T03:42:52;6.50;;;4.37;;
215;SDS011;70668;48.81286795;9.14184224;2023-07-22T03:45:21;7.33;;;4.23;;
215;SDS011;70668;48.81286795;9.14184224;2023-07-22T03:47:50;9.87;;;4.53;;
215;SDS011;70668;48.81286795;9.14184224;2023-07-22T03:50:20;6.60;;;4.40;;
215;SDS011;70668;48.81286795;9.14184224;2023-07-22T03:52:50;7.40;;;4.67;;
215;SDS011;70668;48.81286795;9.14184224;2023-07-22T03:55:19;8.80;;;4.40;;
215;SDS011;70668;48.81286795;9.14184224;2023-07-22T03:57:47;7.23;;;4.33;;
215;SDS011;70668;48.81286795;9.14184224;2023-07-22T04:00:16;8.40;;;4.43;;
215;SDS011;70668;48.81286795;9.14184224;2023-07-22T04:02:45;9.23;;;4.50;;
215;SDS011;70668;48.81286795;9.14184224;2023-07-22T04:05:13;6.80;;;4.30;;
215;SDS011;70668;48.81286795;9.14184224;2023-07-22T04:07:43;5.80;;;4.00;;
215;SDS011;70668;48.81286795;9.14184224;2023-07-22T04:10:15;6.60;;;3.90;;
215;SDS011;70668;48.81286795;9.14184224;2023-07-22T04:12:43;6.90;;;4.30;;
215;SDS011;70668;48.81286795;9.14184224;2023-07-22T04:15:11;7.57;;;4.27;;
215;SDS011;70668;48.81286795;9.14184224;2023-07-22T04:17:40;6.90;;;4.40;;
215;SDS011;70668;48.81286795;9.14184224;2023-07-22T04:20:09;9.33;;;4.10;;
215;SDS011;70668;48.81286795;9.14184224;2023-07-22T04:22:38;6.97;;;4.20;;
215;SDS011;70668;48.81286795;9.14184224;2023-07-22T04:25:07;7.40;;;4.60;;
215;SDS011;70668;48.81286795;9.14184224;2023-07-22T04:27:39;6.80;;;4.00;;
215;SDS011;70668;48.81286795;9.14184224;2023-07-22T04:30:07;9.23;;;4.27;;
215;SDS011;70668;48.81286795;9.14184224;2023-07-22T04:32:39;8.30;;;4.10;;
215;SDS011;70668;48.81286795;9.14184224;2023-07-22T04:35:08;7.27;;;4.50;;
215;SDS011;70668;48.81286795;9.14184224;2023-07-22T04:37:37;9.30;;;4.70;;
215;SDS011;70668;48.81286795;9.14184224;2023-07-22T04:40:06;7.50;;;4.33;;
215;SDS011;70668;48.81286795;9.14184224;2023-07-22T04:42:41;7.73;;;4.40;;
215;SDS011;70668;48.81286795;9.14184224;2023-07-22T04:45:10;6.63;;;4.40;;
215;SDS011;70668;48.81286795;9.14184224;2023-07-22T04:47:39;7.20;;;4.10;;
215;SDS011;70668;48.81286795;9.14184224;2023-07-22T04:50:10;7.00;;;4.20;;
215;SDS011;70668;48.81286795;9.14184224;2023-07-22T04:52:38;6.57;;;4.20;;
215;SDS011;70668;48.81286795;9.14184224;2023-07-22T04:55:07;9.20;;;4.20;;
215;SDS011;70668;48.81286795;9.14184224;2023-07-22T04:57:37;7.03;;;4.30;;
215;SDS011;70668;48.81286795;9.14184224;2023-07-22T05:00:09;7.60;;;4.57;;
215;SDS011;70668;48.81286795;9.14184224;2023-07-22T05:02:40;6.80;;;4.33;;
215;SDS011;70668;48.81286795;9.14184224;2023-07-22T05:05:09;6.90;;;4.20;;
215;SDS011;70668;48.81286795;9.14184224;2023-07-22T05:07:37;7.23;;;4.60;;
215;SDS011;70668;48.81286795;9.14184224;2023-07-22T05:10:07;7.10;;;4.40;;
215;SDS011;70668;48.81286795;9.14184224;2023-07-22T05:12:37;6.73;;;4.30;;
215;SDS011;70668;48.81286795;9.14184224;2023-07-22T05:15:06;7.07;;;4.20;;
215;SDS011;70668;48.81286795;9.14184224;2023-07-22T05:17:37;10.03;;;4.37;;
215;SDS011;70668;48.81286795;9.14184224;2023-07-22T05:20:06;8.53;;;4.50;;
215;SDS011;70668;48.81286795;9.14184224;2023-07-22T05:22:38;6.40;;;4.37;;
215;SDS011;70668;48.81286795;9.14184224;2023-07-22T05:25:07;7.27;;;4.03;;
215;SDS011;70668;48.81286795;9.14184224;2023-07-22T05:27:36;7.43;;;4.70;;
215;SDS011;70668;48.81286795;9.14184224;2023-07-22T05:30:05;8.03;;;4.63;;
215;SDS011;70668;48.81286795;9.14184224;2023-07-22T05:32:37;6.03;;;4.30;;
215;SDS011;70668;48.81286795;9.14184224;2023-07-22T05:35:06;7.50;;;4.40;;
215;SDS011;70668;48.81286795;9.14184224;2023-07-22T05:37:35;6.33;;;4.10;;
215;SDS011;70668;48.81286795;9.14184224;2023-07-22T05:40:04;7.17;;;4.00;;
215;SDS011;70668;48.81286795;9.14184224;2023-07-22T05:42:33;6.60;;;3.87;;
215;SDS011;70668;48.81286795;9.14184224;2023-07-22T05:45:02;8.13;;;4.50;;
215;SDS011;70668;48.81286795;9.14184224;2023-07-22T05:47:31;6.73;;;4.20;;
215;SDS011;70668;48.81286795;9.14184224;2023-07-22T05:50:03;8.07;;;4.37;;
215;SDS011;70668;48.81286795;9.14184224;2023-07-22T05:52:32;9.23;;;4.73;;
215;SDS011;70668;48.81286795;9.14184224;2023-07-22T05:55:00;7.33;;;4.50;;
215;SDS011;70668;48.81286795;9.14184224;2023-07-22T05:57:29;7.30;;;4.20;;
215;SDS011;70668;48.81286795;9.14184224;2023-07-22T05:59:58;7.83;;;4.77;;
215;SDS011;70668;48.81286795;9.14184224;2023-07-22T06:02:27;6.80;;;4.80;;
215;SDS011;70668;48.81286795;9.14184224;2023-07-22T06:04:55;10.87;;;4.40;;
215;SDS011;70668;48.81286795;9.14184224;2023-07-22T06:07:26;9.03;;;4.97;;
215;SDS011;70668;48.81286795;9.14184224;2023-07-22T06:09:54;8.57;;;4.60;;
215;SDS011;70668;48.81286795;9.14184224;2023-07-22T06:12:23;15.93;;;5.10;;
215;SDS011;70668;48.81286795;9.14184224;2023-07-22T06:14:51;8.50;;;4.80;;
215;SDS011;70668;48.81286795;9.14184224;2023-07-22T06:17:20;10.60;;;4.90;;
215;SDS011;70668;48.81286795;9.14184224;2023-07-22T06:19:48;10.47;;;5.03;;
215;SDS011;70668;48.81286795;9.14184224;2023-07-22T06:22:16;10.50;;;4.90;;
215;SDS011;70668;48.81286795;9.14184224;2023-07-22T06:24:47;7.80;;;5.17;;
215;SDS011;70668;48.81286795;9.14184224;2023-07-22T06:27:16;7.80;;;5.03;;
215;SDS011;70668;48.81286795;9.14184224;2023-07-22T06:29:44;9.67;;;5.20;;
215;SDS011;70668;48.81286795;9.14184224;2023-07-22T06:32:13;8.43;;;4.90;;
215;SDS011;70668;48.81286795;9.14184224;2023-07-22T06:34:41;11.63;;;5.40;;
215;SDS011;70668;48.81286795;9.14184224;2023-07-22T06:37:09;8.90;;;5.00;;
215;SDS011;70668;48.81286795;9.14184224;2023-07-22T06:39:38;7.43;;;4.60;;
215;SDS011;70668;48.81286795;9.14184224;2023-07-22T06:42:09;9.53;;;5.13;;
215;SDS011;70668;48.81286795;9.14184224;2023-07-22T06:44:37;10.00;;;5.00;;
215;SDS011;70668;48.81286795;9.14184224;2023-07-22T06:47:06;9.50;;;5.40;;
215;SDS011;70668;48.81286795;9.14184224;2023-07-22T06:49:34;9.50;;;4.90;;
215;SDS011;70668;48.81286795;9.14184224;2023-07-22T06:52:03;7.73;;;4.97;;
215;SDS011;70668;48.81286795;9.14184224;2023-07-22T06:54:32;7.70;;;4.90;;
215;SDS011;70668;48.81286795;9.14184224;2023-07-22T06:57:01;13.23;;;5.10;;
215;SDS011;70668;48.81286795;9.14184224;2023-07-22T06:59:33;7.37;;;4.43;;
215;SDS011;70668;48.81286795;9.14184224;2023-07-22T07:02:02;8.93;;;4.90;;
215;SDS011;70668;48.81286795;9.14184224;2023-07-22T07:04:31;9.67;;;4.87;;
215;SDS011;70668;48.81286795;9.14184224;2023-07-22T07:07:00;9.13;;;5.40;;
215;SDS011;70668;48.81286795;9.14184224;2023-07-22T07:09:28;8.50;;;5.13;;
215;SDS011;70668;48.81286795;9.14184224;2023-07-22T07:11:57;9.30;;;4.67;;
215;SDS011;70668;48.81286795;9.14184224;2023-07-22T07:14:25;7.27;;;4.70;;
215;SDS011;70668;48.81286795;9.14184224;2023-07-22T07:16:56;10.07;;;5.00;;
215;SDS011;70668;48.81286795;9.14184224;2023-07-22T07:19:25;7.10;;;4.30;;
215;SDS011;70668;48.81286795;9.14184224;2023-07-22T07:21:53;7.60;;;4.50;;
215;SDS011;70668;48.81286795;9.14184224;2023-07-22T07:24:22;9.40;;;4.90;;
215;SDS011;70668;48.81286795;9.14184224;2023-07-22T07:26:52;11.40;;;4.67;;
215;SDS011;70668;48.81286795;9.14184224;2023-07-22T07:29:20;6.90;;;4.20;;
215;SDS011;70668;48.81286795;9.14184224;2023-07-22T07:31:49;11.03;;;4.40;;
215;SDS011;70668;48.81286795;9.14184224;2023-07-22T07:34:20;8.00;;;4.33;;
215;SDS011;70668;48.81286795;9.14184224;2023-07-22T07:36:48;8.20;;;4.73;;
215;SDS011;70668;48.81286795;9.14184224;2023-07-22T07:39:17;8.53;;;4.67;;
215;SDS011;70668;48.81286795;9.14184224;2023-07-22T07:41:45;7.10;;;4.40;;
215;SDS011;70668;48.81286795;9.14184224;2023-07-22T07:44:13;5.73;;;4.13;;
215;SDS011;70668;48.81286795;9.14184224;2023-07-22T07:46:42;9.43;;;4.87;;
215;SDS011;70668;48.81286795;9.14184224;2023-07-22T07:49:10;10.53;;;4.20;;
215;SDS011;70668;48.81286795;9.14184224;2023-07-22T07:51:42;9.37;;;4.63;;
215;SDS011;70668;48.81286795;9.14184224;2023-07-22T07:54:11;7.80;;;4.50;;
215;SDS011;70668;48.81286795;9.14184224;2023-07-22T07:56:40;7.47;;;4.90;;
215;SDS011;70668;48.81286795;9.14184224;2023-07-22T07:59:08;8.02;;;4.60;;
215;SDS011;70668;48.81286795;9.14184224;2023-07-22T08:01:36;6.90;;;4.43;;
215;SDS011;70668;48.81286795;9.14184224;2023-07-22T08:04:07;7.03;;;4.00;;
215;SDS011;70668;48.81286795;9.14184224;2023-07-22T08:06:35;7.57;;;4.10;;
215;SDS011;70668;48.81286795;9.14184224;2023-07-22T08:09:07;5.70;;;3.80;;
215;SDS011;70668;48.81286795;9.14184224;2023-07-22T08:11:36;6.50;;;3.87;;
215;SDS011;70668;48.81286795;9.14184224;2023-07-22T08:14:04;6.60;;;4.07;;
215;SDS011;70668;48.81286795;9.14184224;2023-07-22T08:16:33;6.40;;;3.93;;
215;SDS011;70668;48.81286795;9.14184224;2023-07-22T08:19:01;8.40;;;4.20;;
215;SDS011;70668;48.81286795;9.14184224;2023-07-22T08:21:30;6.90;;;4.03;;
215;SDS011;70668;48.81286795;9.14184224;2023-07-22T08:23:58;5.60;;;3.53;;
215;SDS011;70668;48.81286795;9.14184224;2023-07-22T08:26:29;6.73;;;4.00;;
215;SDS011;70668;48.81286795;9.14184224;2023-07-22T08:28:57;7.07;;;3.43;;
215;SDS011;70668;48.81286795;9.14184224;2023-07-22T08:31:26;9.03;;;3.60;;
215;SDS011;70668;48.81286795;9.14184224;2023-07-22T08:33:55;6.17;;;3.60;;
215;SDS011;70668;48.81286795;9.14184224;2023-07-22T08:36:23;6.40;;;3.20;;
215;SDS011;70668;48.81286795;9.14184224;2023-07-22T08:38:51;4.80;;;3.10;;
215;SDS011;70668;48.81286795;9.14184224;2023-07-22T08:41:20;13.10;;;3.10;;
215;SDS011;70668;48.81286795;9.14184224;2023-07-22T08:43:53;8.57;;;3.13;;
215;SDS011;70668;48.81286795;9.14184224;2023-07-22T08:46:22;6.10;;;3.67;;
215;SDS011;70668;48.81286795;9.14184224;2023-07-22T08:48:52;6.90;;;3.87;;
215;SDS011;70668;48.81286795;9.14184224;2023-07-22T08:51:21;6.10;;;3.73;;
215;SDS011;70668;48.81286795;9.14184224;2023-07-22T08:53:53;6.90;;;3.47;;
215;SDS011;70668;48.81286795;9.14184224;2023-07-22T08:56:22;6.20;;;3.40;;
215;SDS011;70668;48.81286795;9.14184224;2023-07-22T08:58:54;6.83;;;3.33;;
215;SDS011;70668;48.81286795;9.14184224;2023-07-22T09:01:23;6.30;;;3.30;;
215;SDS011;70668;48.81286795;9.14184224;2023-07-22T09:03:51;5.23;;;2.97;;
215;SDS011;70668;48.81286795;9.14184224;2023-07-22T09:06:22;5.00;;;3.20;;
215;SDS011;70668;48.81286795;9.14184224;2023-07-22T09:08:50;5.37;;;2.93;;
215;SDS011;70668;48.81286795;9.14184224;2023-07-22T09:11:19;5.50;;;3.40;;
215;SDS011;70668;48.81286795;9.14184224;2023-07-22T09:13:48;8.27;;;3.53;;
215;SDS011;70668;48.81286795;9.14184224;2023-07-22T09:16:19;7.17;;;3.60;;
215;SDS011;70668;48.81286795;9.14184224;2023-07-22T09:18:48;7.50;;;4.20;;
215;SDS011;70668;48.81286795;9.14184224;2023-07-22T09:21:16;7.00;;;4.40;;
215;SDS011;70668;48.81286795;9.14184224;2023-07-22T09:23:45;6.40;;;3.67;;
215;SDS011;70668;48.81286795;9.14184224;2023-07-22T09:26:14;5.13;;;3.40;;
215;SDS011;70668;48.81286795;9.14184224;2023-07-22T09:28:50;6.83;;;3.57;;
215;SDS011;70668;48.81286795;9.14184224;2023-07-22T09:31:23;7.50;;;3.33;;
215;SDS011;70668;48.81286795;9.14184224;2023-07-22T09:33:52;6.83;;;3.60;;
215;SDS011;70668;48.81286795;9.14184224;2023-07-22T09:36:22;5.40;;;3.40;;
215;SDS011;70668;48.81286795;9.14184224;2023-07-22T09:38:59;7.43;;;3.70;;
215;SDS011;70668;48.81286795;9.14184224;2023-07-22T09:41:29;7.17;;;3.47;;
215;SDS011;70668;48.81286795;9.14184224;2023-07-22T09:44:00;7.80;;;3.37;;
215;SDS011;70668;48.81286795;9.14184224;2023-07-22T09:46:33;5.90;;;3.60;;
215;SDS011;70668;48.81286795;9.14184224;2023-07-22T09:49:02;5.43;;;3.10;;
215;SDS011;70668;48.81286795;9.14184224;2023-07-22T09:51:34;5.73;;;3.10;;
215;SDS011;70668;48.81286795;9.14184224;2023-07-22T09:54:04;6.30;;;3.00;;
215;SDS011;70668;48.81286795;9.14184224;2023-07-22T09:56:42;6.90;;;3.43;;
215;SDS011;70668;48.81286795;9.14184224;2023-07-22T09:59:11;5.30;;;2.90;;
215;SDS011;70668;48.81286795;9.14184224;2023-07-22T10:01:42;4.43;;;2.67;;
215;SDS011;70668;48.81286795;9.14184224;2023-07-22T10:04:12;4.67;;;2.80;;
215;SDS011;70668;48.81286795;9.14184224;2023-07-22T10:06:43;4.47;;;2.77;;
215;SDS011;70668;48.81286795;9.14184224;2023-07-22T10:09:12;5.40;;;2.87;;
215;SDS011;70668;48.81286795;9.14184224;2023-07-22T10:11:40;4.67;;;2.70;;
215;SDS011;70668;48.81286795;9.14184224;2023-07-22T10:14:09;5.20;;;2.60;;
215;SDS011;70668;48.81286795;9.14184224;2023-07-22T10:16:39;4.63;;;2.60;;
215;SDS011;70668;48.81286795;9.14184224;2023-07-22T10:19:10;16.97;;;3.70;;
215;SDS011;70668;48.81286795;9.14184224;2023-07-22T10:21:39;10.83;;;3.70;;
215;SDS011;70668;48.81286795;9.14184224;2023-07-22T10:24:07;5.83;;;3.10;;
215;SDS011;70668;48.81286795;9.14184224;2023-07-22T10:26:37;5.00;;;3.13;;
215;SDS011;70668;48.81286795;9.14184224;2023-07-22T10:29:07;6.63;;;3.13;;
215;SDS011;70668;48.81286795;9.14184224;2023-07-22T10:31:36;5.10;;;3.33;;
215;SDS011;70668;48.81286795;9.14184224;2023-07-22T10:34:07;9.27;;;4.17;;
215;SDS011;70668;48.81286795;9.14184224;2023-07-22T10:36:36;10.03;;;3.20;;
215;SDS011;70668;48.81286795;9.14184224;2023-07-22T10:39:04;7.30;;;2.70;;
215;SDS011;70668;48.81286795;9.14184224;2023-07-22T10:41:33;5.37;;;2.67;;
215;SDS011;70668;48.81286795;9.14184224;2023-07-22T10:44:06;22.40;;;3.30;;
215;SDS011;70668;48.81286795;9.14184224;2023-07-22T10:46:38;3.80;;;2.50;;
215;SDS011;70668;48.81286795;9.14184224;2023-07-22T10:49:14;5.13;;;2.90;;
215;SDS011;70668;48.81286795;9.14184224;2023-07-22T10:51:47;4.30;;;2.80;;
215;SDS011;70668;48.81286795;9.14184224;2023-07-22T10:54:30;5.00;;;3.00;;
215;SDS011;70668;48.81286795;9.14184224;2023-07-22T10:57:04;8.83;;;3.03;;
215;SDS011;70668;48.81286795;9.14184224;2023-07-22T10:59:50;6.17;;;2.90;;
215;SDS011;70668;48.81286795;9.14184224;2023-07-22T11:02:23;4.50;;;2.70;;
215;SDS011;70668;48.81286795;9.14184224;2023-07-22T11:04:54;5.27;;;3.00;;
215;SDS011;70668;48.81286795;9.14184224;2023-07-22T11:07:30;5.90;;;2.80;;
215;SDS011;70668;48.81286795;9.14184224;2023-07-22T11:10:10;5.50;;;2.70;;
215;SDS011;70668;48.81286795;9.14184224;2023-07-22T11:12:42;5.23;;;2.70;;
215;SDS011;70668;48.81286795;9.14184224;2023-07-22T11:15:11;5.60;;;3.00;;
215;SDS011;70668;48.81286795;9.14184224;2023-07-22T11:17:43;5.30;;;2.83;;
215;SDS011;70668;48.81286795;9.14184224;2023-07-22T11:20:13;6.67;;;2.93;;
215;SDS011;70668;48.81286795;9.14184224;2023-07-22T11:22:42;8.87;;;3.00;;
215;SDS011;70668;48.81286795;9.14184224;2023-07-22T11:25:16;5.73;;;3.00;;
215;SDS011;70668;48.81286795;9.14184224;2023-07-22T11:27:46;7.07;;;3.20;;
215;SDS011;70668;48.81286795;9.14184224;2023-07-22T11:30:15;5.60;;;3.20;;
215;SDS011;70668;48.81286795;9.14184224;2023-07-22T11:32:43;6.80;;;3.10;;
215;SDS011;70668;48.81286795;9.14184224;2023-07-22T11:35:14;5.37;;;2.93;;
215;SDS011;70668;48.81286795;9.14184224;2023-07-22T11:37:44;5.90;;;3.07;;
215;SDS011;70668;48.81286795;9.14184224;2023-07-22T11:40:13;5.50;;;3.13;;
215;SDS011;70668;48.81286795;9.14184224;2023-07-22T11:42:41;5.40;;;3.17;;
215;SDS011;70668;48.81286795;9.14184224;2023-07-22T11:45:12;6.40;;;3.30;;
215;SDS011;70668;48.81286795;9.14184224;2023-07-22T11:47:41;7.83;;;2.87;;
215;SDS011;70668;48.81286795;9.14184224;2023-07-22T11:50:09;6.20;;;3.17;;
215;SDS011;70668;48.81286795;9.14184224;2023-07-22T11:52:40;5.60;;;3.20;;
215;SDS011;70668;48.81286795;9.14184224;2023-07-22T11:55:09;7.73;;;3.23;;
215;SDS011;70668;48.81286795;9.14184224;2023-07-22T11:57:38;4.60;;;3.00;;
215;SDS011;70668;48.81286795;9.14184224;2023-07-22T12:00:08;4.77;;;3.20;;
215;SDS011;70668;48.81286795;9.14184224;2023-07-22T12:02:37;6.23;;;3.57;;
215;SDS011;70668;48.81286795;9.14184224;2023-07-22T12:05:06;5.20;;;3.33;;
215;SDS011;70668;48.81286795;9.14184224;2023-07-22T12:07:35;5.07;;;3.33;;
215;SDS011;70668;48.81286795;9.14184224;2023-07-22T12:10:09;4.77;;;3.13;;
215;SDS011;70668;48.81286795;9.14184224;2023-07-22T12:12:39;5.63;;;3.43;;
215;SDS011;70668;48.81286795;9.14184224;2023-07-22T12:15:10;4.87;;;3.10;;
215;SDS011;70668;48.81286795;9.14184224;2023-07-22T12:17:44;6.13;;;3.27;;
215;SDS011;70668;48.81286795;9.14184224;2023-07-22T12:20:14;6.27;;;3.00;;
215;SDS011;70668;48.81286795;9.14184224;2023-07-22T12:22:42;5.10;;;3.37;;
215;SDS011;70668;48.81286795;9.14184224;2023-07-22T12:25:13;7.23;;;3.53;;
215;SDS011;70668;48.81286795;9.14184224;2023-07-22T12:27:43;5.77;;;3.10;;
215;SDS011;70668;48.81286795;9.14184224;2023-07-22T12:30:11;6.63;;;3.23;;
215;SDS011;70668;48.81286795;9.14184224;2023-07-22T12:32:40;7.80;;;3.23;;
215;SDS011;70668;48.81286795;9.14184224;2023-07-22T12:35:09;6.13;;;3.00;;
215;SDS011;70668;48.81286795;9.14184224;2023-07-22T12:37:39;6.73;;;3.13;;
215;SDS011;70668;48.81286795;9.14184224;2023-07-22T12:40:08;5.60;;;3.20;;
215;SDS011;70668;48.81286795;9.14184224;2023-07-22T12:42:41;5.37;;;3.47;;
215;SDS011;70668;48.81286795;9.14184224;2023-07-22T12:45:10;5.73;;;3.20;;
215;SDS011;70668;48.81286795;9.14184224;2023-07-22T12:47:39;7.27;;;3.30;;
215;SDS011;70668;48.81286795;9.14184224;2023-07-22T12:50:08;5.33;;;3.37;;
215;SDS011;70668;48.81286795;9.14184224;2023-07-22T12:52:37;5.80;;;3.20;;
215;SDS011;70668;48.81286795;9.14184224;2023-07-22T12:55:05;4.97;;;3.47;;
215;SDS011;70668;48.81286795;9.14184224;2023-07-22T12:57:34;6.10;;;3.77;;
215;SDS011;70668;48.81286795;9.14184224;2023-07-22T13:00:06;5.33;;;3.57;;
215;SDS011;70668;48.81286795;9.14184224;2023-07-22T13:02:36;5.10;;;3.13;;
215;SDS011;70668;48.81286795;9.14184224;2023-07-22T13:05:05;4.97;;;3.47;;
215;SDS011;70668;48.81286795;9.14184224;2023-07-22T13:07:34;5.10;;;3.40;;
215;SDS011;70668;48.81286795;9.14184224;2023-07-22T13:10:03;5.83;;;3.80;;
215;SDS011;70668;48.81286795;9.14184224;2023-07-22T13:12:36;5.33;;;3.30;;
215;SDS011;70668;48.81286795;9.14184224;2023-07-22T13:15:07;8.13;;;3.70;;
215;SDS011;70668;48.81286795;9.14184224;2023-07-22T13:17:36;7.00;;;3.60;;
215;SDS011;70668;48.81286795;9.14184224;2023-07-22T13:20:05;5.50;;;3.50;;
215;SDS011;70668;48.81286795;9.14184224;2023-07-22T13:22:36;5.87;;;3.63;;